sensor_id;sensor_type;location;lat;lon;timestamp;temperature;humidity
16289;DHT22;26089;43.538;5.250;2023-04-16T00:02:00;10.60;99.90
16289;DHT22;26089;43.538;5.250;2023-04-16T00:04:27;10.70;99.90
16289;DHT22;26089;43.538;5.250;2023-04-16T00:06:56;10.60;99.90
16289;DHT22;26089;43.538;5.250;2023-04-16T00:09:23;10.60;99.90
16289;DHT22;26089;43.538;5.250;2023-04-16T00:11:50;10.60;99.90
16289;DHT22;26089;43.538;5.250;2023-04-16T00:14:17;10.60;99.90
16289;DHT22;26089;43.538;5.250;2023-04-16T00:16:44;10.60;99.90
16289;DHT22;26089;43.538;5.250;2023-04-16T00:19:11;10.60;99.90
16289;DHT22;26089;43.538;5.250;2023-04-16T00:21:38;10.20;99.90
16289;DHT22;26089;43.538;5.250;2023-04-16T00:24:06;10.60;99.90
16289;DHT22;26089;43.538;5.250;2023-04-16T00:26:33;10.60;99.90
16289;DHT22;26089;43.538;5.250;2023-04-16T00:29:00;10.50;99.90
16289;DHT22;26089;43.538;5.250;2023-04-16T00:31:28;10.60;99.90
16289;DHT22;26089;43.538;5.250;2023-04-16T00:33:55;10.60;99.90
16289;DHT22;26089;43.538;5.250;2023-04-16T00:36:22;10.60;99.90
16289;DHT22;26089;43.538;5.250;2023-04-16T00:38:49;10.60;99.90
16289;DHT22;26089;43.538;5.250;2023-04-16T00:41:18;10.60;99.90
16289;DHT22;26089;43.538;5.250;2023-04-16T00:43:45;10.60;99.90
16289;DHT22;26089;43.538;5.250;2023-04-16T00:46:12;10.60;99.90
16289;DHT22;26089;43.538;5.250;2023-04-16T00:48:39;10.60;99.90
16289;DHT22;26089;43.538;5.250;2023-04-16T00:51:08;10.60;99.90
16289;DHT22;26089;43.538;5.250;2023-04-16T00:53:35;10.60;99.90
16289;DHT22;26089;43.538;5.250;2023-04-16T00:56:04;10.60;99.90
16289;DHT22;26089;43.538;5.250;2023-04-16T00:58:33;10.70;99.90
16289;DHT22;26089;43.538;5.250;2023-04-16T01:01:01;10.70;99.90
16289;DHT22;26089;43.538;5.250;2023-04-16T01:03:34;10.70;99.90
16289;DHT22;26089;43.538;5.250;2023-04-16T01:06:02;10.70;99.90
16289;DHT22;26089;43.538;5.250;2023-04-16T01:08:29;10.70;99.90
16289;DHT22;26089;43.538;5.250;2023-04-16T01:10:56;10.70;99.90
16289;DHT22;26089;43.538;5.250;2023-04-16T01:13:23;10.70;99.90
16289;DHT22;26089;43.538;5.250;2023-04-16T01:15:51;10.80;99.90
16289;DHT22;26089;43.538;5.250;2023-04-16T01:18:19;10.80;99.90
16289;DHT22;26089;43.538;5.250;2023-04-16T01:20:49;10.80;99.90
16289;DHT22;26089;43.538;5.250;2023-04-16T01:23:16;10.80;99.90
16289;DHT22;26089;43.538;5.250;2023-04-16T01:25:44;10.90;99.90
16289;DHT22;26089;43.538;5.250;2023-04-16T01:28:11;10.90;99.90
16289;DHT22;26089;43.538;5.250;2023-04-16T01:30:38;10.90;99.90
16289;DHT22;26089;43.538;5.250;2023-04-16T01:33:05;10.90;99.90
16289;DHT22;26089;43.538;5.250;2023-04-16T01:35:32;11.00;99.90
16289;DHT22;26089;43.538;5.250;2023-04-16T01:38:01;10.90;99.90
16289;DHT22;26089;43.538;5.250;2023-04-16T01:40:28;10.90;99.90
16289;DHT22;26089;43.538;5.250;2023-04-16T01:42:55;10.90;99.90
16289;DHT22;26089;43.538;5.250;2023-04-16T01:45:22;10.90;99.90
16289;DHT22;26089;43.538;5.250;2023-04-16T01:47:49;11.00;99.90
16289;DHT22;26089;43.538;5.250;2023-04-16T01:50:16;10.60;99.90
16289;DHT22;26089;43.538;5.250;2023-04-16T01:52:44;10.90;99.90
16289;DHT22;26089;43.538;5.250;2023-04-16T01:55:12;10.90;99.90
16289;DHT22;26089;43.538;5.250;2023-04-16T01:57:40;11.00;99.90
16289;DHT22;26089;43.538;5.250;2023-04-16T02:00:08;11.10;99.90
16289;DHT22;26089;43.538;5.250;2023-04-16T02:02:35;11.10;99.90
16289;DHT22;26089;43.538;5.250;2023-04-16T02:05:02;11.10;99.90
16289;DHT22;26089;43.538;5.250;2023-04-16T02:07:29;11.00;99.90
16289;DHT22;26089;43.538;5.250;2023-04-16T02:09:57;11.00;99.90
16289;DHT22;26089;43.538;5.250;2023-04-16T02:12:25;11.00;99.90
16289;DHT22;26089;43.538;5.250;2023-04-16T02:14:52;11.00;99.90
16289;DHT22;26089;43.538;5.250;2023-04-16T02:17:19;11.00;99.90
16289;DHT22;26089;43.538;5.250;2023-04-16T02:19:46;11.00;99.90
16289;DHT22;26089;43.538;5.250;2023-04-16T02:22:13;10.80;99.90
16289;DHT22;26089;43.538;5.250;2023-04-16T02:24:40;11.10;99.90
16289;DHT22;26089;43.538;5.250;2023-04-16T02:27:07;12.10;99.90
16289;DHT22;26089;43.538;5.250;2023-04-16T02:29:36;11.00;99.90
16289;DHT22;26089;43.538;5.250;2023-04-16T02:32:03;11.00;99.90
16289;DHT22;26089;43.538;5.250;2023-04-16T02:34:30;10.90;99.90
16289;DHT22;26089;43.538;5.250;2023-04-16T02:36:59;10.80;99.90
16289;DHT22;26089;43.538;5.250;2023-04-16T02:39:26;10.90;99.90
16289;DHT22;26089;43.538;5.250;2023-04-16T02:41:53;10.90;99.90
16289;DHT22;26089;43.538;5.250;2023-04-16T02:44:20;10.90;99.90
16289;DHT22;26089;43.538;5.250;2023-04-16T02:46:49;10.90;99.90
16289;DHT22;26089;43.538;5.250;2023-04-16T02:49:16;10.80;99.90
16289;DHT22;26089;43.538;5.250;2023-04-16T02:51:42;10.90;99.90
16289;DHT22;26089;43.538;5.250;2023-04-16T02:54:09;10.80;99.90
16289;DHT22;26089;43.538;5.250;2023-04-16T02:56:36;10.80;99.90
16289;DHT22;26089;43.538;5.250;2023-04-16T02:59:03;10.80;99.90
16289;DHT22;26089;43.538;5.250;2023-04-16T03:01:31;10.80;99.90
16289;DHT22;26089;43.538;5.250;2023-04-16T03:03:59;10.80;99.90
16289;DHT22;26089;43.538;5.250;2023-04-16T03:06:26;10.80;99.90
16289;DHT22;26089;43.538;5.250;2023-04-16T03:08:53;10.80;99.90
16289;DHT22;26089;43.538;5.250;2023-04-16T03:11:20;10.70;99.90
16289;DHT22;26089;43.538;5.250;2023-04-16T03:13:47;10.70;99.90
16289;DHT22;26089;43.538;5.250;2023-04-16T03:16:14;10.70;99.90
16289;DHT22;26089;43.538;5.250;2023-04-16T03:18:41;11.70;99.90
16289;DHT22;26089;43.538;5.250;2023-04-16T03:21:09;10.70;99.90
16289;DHT22;26089;43.538;5.250;2023-04-16T03:23:36;10.80;99.90
16289;DHT22;26089;43.538;5.250;2023-04-16T03:26:04;10.70;99.90
16289;DHT22;26089;43.538;5.250;2023-04-16T03:28:31;10.70;99.90
16289;DHT22;26089;43.538;5.250;2023-04-16T03:30:58;11.50;99.90
16289;DHT22;26089;43.538;5.250;2023-04-16T03:33:24;10.70;99.90
16289;DHT22;26089;43.538;5.250;2023-04-16T03:35:55;10.70;99.90
16289;DHT22;26089;43.538;5.250;2023-04-16T03:38:24;10.70;99.90
16289;DHT22;26089;43.538;5.250;2023-04-16T03:40:51;10.70;99.90
16289;DHT22;26089;43.538;5.250;2023-04-16T03:43:18;10.30;99.90
16289;DHT22;26089;43.538;5.250;2023-04-16T03:45:45;10.70;99.90
16289;DHT22;26089;43.538;5.250;2023-04-16T03:48:12;10.70;99.90
16289;DHT22;26089;43.538;5.250;2023-04-16T03:50:44;10.70;99.90
16289;DHT22;26089;43.538;5.250;2023-04-16T03:53:11;10.70;99.90
16289;DHT22;26089;43.538;5.250;2023-04-16T03:55:39;10.50;99.90
16289;DHT22;26089;43.538;5.250;2023-04-16T03:58:06;10.60;99.90
16289;DHT22;26089;43.538;5.250;2023-04-16T04:00:33;10.60;99.90
16289;DHT22;26089;43.538;5.250;2023-04-16T04:03:00;10.60;99.90
16289;DHT22;26089;43.538;5.250;2023-04-16T04:05:27;10.60;99.90
16289;DHT22;26089;43.538;5.250;2023-04-16T04:07:54;10.60;99.90
16289;DHT22;26089;43.538;5.250;2023-04-16T04:10:21;10.60;99.90
16289;DHT22;26089;43.538;5.250;2023-04-16T04:12:49;10.50;99.90
16289;DHT22;26089;43.538;5.250;2023-04-16T04:15:17;10.60;99.90
16289;DHT22;26089;43.538;5.250;2023-04-16T04:17:44;10.50;99.90
16289;DHT22;26089;43.538;5.250;2023-04-16T04:20:11;10.50;99.90
16289;DHT22;26089;43.538;5.250;2023-04-16T04:22:38;10.50;99.90
16289;DHT22;26089;43.538;5.250;2023-04-16T04:25:05;10.50;99.90
16289;DHT22;26089;43.538;5.250;2023-04-16T04:27:33;10.50;99.90
16289;DHT22;26089;43.538;5.250;2023-04-16T04:30:02;10.50;99.90
16289;DHT22;26089;43.538;5.250;2023-04-16T04:32:29;10.60;99.90
16289;DHT22;26089;43.538;5.250;2023-04-16T04:34:56;10.40;99.90
16289;DHT22;26089;43.538;5.250;2023-04-16T04:37:23;10.40;99.90
16289;DHT22;26089;43.538;5.250;2023-04-16T04:39:50;10.40;99.90
16289;DHT22;26089;43.538;5.250;2023-04-16T04:42:17;10.30;99.90
16289;DHT22;26089;43.538;5.250;2023-04-16T04:44:44;10.30;99.90
16289;DHT22;26089;43.538;5.250;2023-04-16T04:47:13;10.30;99.90
16289;DHT22;26089;43.538;5.250;2023-04-16T04:49:41;10.30;99.90
16289;DHT22;26089;43.538;5.250;2023-04-16T04:52:07;10.20;99.90
16289;DHT22;26089;43.538;5.250;2023-04-16T04:54:34;10.20;99.90
16289;DHT22;26089;43.538;5.250;2023-04-16T04:57:01;10.30;99.90
16289;DHT22;26089;43.538;5.250;2023-04-16T04:59:28;10.20;99.90
16289;DHT22;26089;43.538;5.250;2023-04-16T05:01:55;10.20;99.90
16289;DHT22;26089;43.538;5.250;2023-04-16T05:04:24;10.20;99.90
16289;DHT22;26089;43.538;5.250;2023-04-16T05:06:51;10.20;99.90
16289;DHT22;26089;43.538;5.250;2023-04-16T05:09:18;10.20;99.90
16289;DHT22;26089;43.538;5.250;2023-04-16T05:11:45;10.20;99.90
16289;DHT22;26089;43.538;5.250;2023-04-16T05:14:12;10.30;99.90
16289;DHT22;26089;43.538;5.250;2023-04-16T05:16:39;10.30;99.90
16289;DHT22;26089;43.538;5.250;2023-04-16T05:19:06;10.40;99.90
16289;DHT22;26089;43.538;5.250;2023-04-16T05:21:34;11.10;99.90
16289;DHT22;26089;43.538;5.250;2023-04-16T05:24:01;10.30;99.90
16289;DHT22;26089;43.538;5.250;2023-04-16T05:26:28;10.30;99.90
16289;DHT22;26089;43.538;5.250;2023-04-16T05:28:55;10.30;99.90
16289;DHT22;26089;43.538;5.250;2023-04-16T05:31:22;10.30;99.90
16289;DHT22;26089;43.538;5.250;2023-04-16T05:33:49;11.30;99.90
16289;DHT22;26089;43.538;5.250;2023-04-16T05:36:16;10.40;99.90
16289;DHT22;26089;43.538;5.250;2023-04-16T05:38:44;10.40;99.90
16289;DHT22;26089;43.538;5.250;2023-04-16T05:41:11;10.50;99.90
16289;DHT22;26089;43.538;5.250;2023-04-16T05:43:38;10.60;99.90
16289;DHT22;26089;43.538;5.250;2023-04-16T05:46:05;10.60;99.90
16289;DHT22;26089;43.538;5.250;2023-04-16T05:48:32;10.60;99.90
16289;DHT22;26089;43.538;5.250;2023-04-16T05:50:59;10.70;99.90
16289;DHT22;26089;43.538;5.250;2023-04-16T05:53:27;10.90;99.90
16289;DHT22;26089;43.538;5.250;2023-04-16T05:55:56;10.80;99.90
16289;DHT22;26089;43.538;5.250;2023-04-16T05:58:23;10.80;99.90
16289;DHT22;26089;43.538;5.250;2023-04-16T06:00:50;10.90;99.90
16289;DHT22;26089;43.538;5.250;2023-04-16T06:03:17;10.90;99.90
16289;DHT22;26089;43.538;5.250;2023-04-16T06:05:44;11.00;99.90
16289;DHT22;26089;43.538;5.250;2023-04-16T06:08:11;11.00;99.90
16289;DHT22;26089;43.538;5.250;2023-04-16T06:10:38;11.10;99.90
16289;DHT22;26089;43.538;5.250;2023-04-16T06:13:06;11.20;99.90
16289;DHT22;26089;43.538;5.250;2023-04-16T06:15:33;11.20;99.90
16289;DHT22;26089;43.538;5.250;2023-04-16T06:18:00;11.40;99.90
16289;DHT22;26089;43.538;5.250;2023-04-16T06:20:27;11.60;99.90
16289;DHT22;26089;43.538;5.250;2023-04-16T06:22:54;11.80;99.90
16289;DHT22;26089;43.538;5.250;2023-04-16T06:25:21;12.10;99.90
16289;DHT22;26089;43.538;5.250;2023-04-16T06:27:48;12.40;99.90
16289;DHT22;26089;43.538;5.250;2023-04-16T06:30:17;12.60;99.90
16289;DHT22;26089;43.538;5.250;2023-04-16T06:32:44;12.60;99.90
16289;DHT22;26089;43.538;5.250;2023-04-16T06:35:12;12.80;99.90
16289;DHT22;26089;43.538;5.250;2023-04-16T06:37:39;12.90;99.90
16289;DHT22;26089;43.538;5.250;2023-04-16T06:40:07;13.10;99.90
16289;DHT22;26089;43.538;5.250;2023-04-16T06:42:34;13.10;99.90
16289;DHT22;26089;43.538;5.250;2023-04-16T06:45:01;13.10;99.90
16289;DHT22;26089;43.538;5.250;2023-04-16T06:47:29;13.10;99.90
16289;DHT22;26089;43.538;5.250;2023-04-16T06:49:56;13.00;99.90
16289;DHT22;26089;43.538;5.250;2023-04-16T06:52:23;13.10;99.90
16289;DHT22;26089;43.538;5.250;2023-04-16T06:54:50;13.00;99.90
16289;DHT22;26089;43.538;5.250;2023-04-16T06:57:17;13.20;99.90
16289;DHT22;26089;43.538;5.250;2023-04-16T06:59:44;13.40;99.90
16289;DHT22;26089;43.538;5.250;2023-04-16T07:02:11;13.60;99.90
16289;DHT22;26089;43.538;5.250;2023-04-16T07:04:39;13.90;99.90
16289;DHT22;26089;43.538;5.250;2023-04-16T07:07:07;14.40;99.90
16289;DHT22;26089;43.538;5.250;2023-04-16T07:09:34;15.30;99.90
16289;DHT22;26089;43.538;5.250;2023-04-16T07:12:01;15.80;99.90
16289;DHT22;26089;43.538;5.250;2023-04-16T07:14:28;16.60;99.90
16289;DHT22;26089;43.538;5.250;2023-04-16T07:16:55;16.70;99.90
16289;DHT22;26089;43.538;5.250;2023-04-16T07:19:22;17.40;99.90
16289;DHT22;26089;43.538;5.250;2023-04-16T07:21:51;17.70;99.90
16289;DHT22;26089;43.538;5.250;2023-04-16T07:24:18;18.10;99.90
16289;DHT22;26089;43.538;5.250;2023-04-16T07:26:45;18.30;99.90
16289;DHT22;26089;43.538;5.250;2023-04-16T07:29:12;18.70;99.90
16289;DHT22;26089;43.538;5.250;2023-04-16T07:31:39;18.80;99.90
16289;DHT22;26089;43.538;5.250;2023-04-16T07:34:06;18.50;99.90
16289;DHT22;26089;43.538;5.250;2023-04-16T07:36:33;18.90;99.90
16289;DHT22;26089;43.538;5.250;2023-04-16T07:39:02;18.90;99.90
16289;DHT22;26089;43.538;5.250;2023-04-16T07:41:29;19.10;99.90
16289;DHT22;26089;43.538;5.250;2023-04-16T07:43:57;19.70;99.90
16289;DHT22;26089;43.538;5.250;2023-04-16T07:46:24;20.10;99.90
16289;DHT22;26089;43.538;5.250;2023-04-16T07:48:51;20.10;99.90
16289;DHT22;26089;43.538;5.250;2023-04-16T07:51:17;19.80;99.90
16289;DHT22;26089;43.538;5.250;2023-04-16T07:53:45;20.00;99.90
16289;DHT22;26089;43.538;5.250;2023-04-16T07:56:13;19.60;99.90
16289;DHT22;26089;43.538;5.250;2023-04-16T07:58:40;19.90;99.90
16289;DHT22;26089;43.538;5.250;2023-04-16T08:01:07;19.80;99.90
16289;DHT22;26089;43.538;5.250;2023-04-16T08:03:34;20.20;99.90
16289;DHT22;26089;43.538;5.250;2023-04-16T08:06:01;20.10;99.90
16289;DHT22;26089;43.538;5.250;2023-04-16T08:08:28;20.00;99.90
16289;DHT22;26089;43.538;5.250;2023-04-16T08:10:55;19.80;99.90
16289;DHT22;26089;43.538;5.250;2023-04-16T08:13:24;20.00;99.90
16289;DHT22;26089;43.538;5.250;2023-04-16T08:15:50;19.50;99.90
16289;DHT22;26089;43.538;5.250;2023-04-16T08:18:18;19.00;99.90
16289;DHT22;26089;43.538;5.250;2023-04-16T08:20:45;19.10;99.90
16289;DHT22;26089;43.538;5.250;2023-04-16T08:23:12;19.20;99.90
16289;DHT22;26089;43.538;5.250;2023-04-16T08:25:38;19.30;99.90
16289;DHT22;26089;43.538;5.250;2023-04-16T08:28:05;19.50;99.90
16289;DHT22;26089;43.538;5.250;2023-04-16T08:30:34;20.00;99.90
16289;DHT22;26089;43.538;5.250;2023-04-16T08:33:01;20.10;99.90
16289;DHT22;26089;43.538;5.250;2023-04-16T08:35:28;20.10;99.90
16289;DHT22;26089;43.538;5.250;2023-04-16T08:37:55;19.90;99.90
16289;DHT22;26089;43.538;5.250;2023-04-16T08:40:25;20.30;99.90
16289;DHT22;26089;43.538;5.250;2023-04-16T08:42:53;20.00;99.90
16289;DHT22;26089;43.538;5.250;2023-04-16T08:45:20;20.30;99.90
16289;DHT22;26089;43.538;5.250;2023-04-16T08:47:49;19.60;99.90
16289;DHT22;26089;43.538;5.250;2023-04-16T08:50:21;19.50;99.90
16289;DHT22;26089;43.538;5.250;2023-04-16T08:52:50;19.40;99.90
16289;DHT22;26089;43.538;5.250;2023-04-16T08:55:19;20.10;99.90
16289;DHT22;26089;43.538;5.250;2023-04-16T08:57:50;20.40;99.90
16289;DHT22;26089;43.538;5.250;2023-04-16T09:00:18;20.70;99.90
16289;DHT22;26089;43.538;5.250;2023-04-16T09:02:46;20.20;99.90
16289;DHT22;26089;43.538;5.250;2023-04-16T09:05:15;19.90;99.90
16289;DHT22;26089;43.538;5.250;2023-04-16T09:07:44;19.90;99.90
16289;DHT22;26089;43.538;5.250;2023-04-16T09:10:12;20.10;99.90
16289;DHT22;26089;43.538;5.250;2023-04-16T09:12:41;20.00;99.90
16289;DHT22;26089;43.538;5.250;2023-04-16T09:15:09;20.20;99.90
16289;DHT22;26089;43.538;5.250;2023-04-16T09:17:37;20.10;99.90
16289;DHT22;26089;43.538;5.250;2023-04-16T09:20:06;20.10;99.90
16289;DHT22;26089;43.538;5.250;2023-04-16T09:22:37;20.20;99.90
16289;DHT22;26089;43.538;5.250;2023-04-16T09:25:05;19.90;99.90
16289;DHT22;26089;43.538;5.250;2023-04-16T09:27:32;20.20;99.90
16289;DHT22;26089;43.538;5.250;2023-04-16T09:29:59;20.40;99.90
16289;DHT22;26089;43.538;5.250;2023-04-16T09:32:27;20.30;99.90
16289;DHT22;26089;43.538;5.250;2023-04-16T09:34:56;20.10;99.90
16289;DHT22;26089;43.538;5.250;2023-04-16T09:37:23;20.00;99.90
16289;DHT22;26089;43.538;5.250;2023-04-16T09:39:57;20.20;99.90
16289;DHT22;26089;43.538;5.250;2023-04-16T09:42:25;19.70;99.90
16289;DHT22;26089;43.538;5.250;2023-04-16T09:44:53;19.70;99.90
16289;DHT22;26089;43.538;5.250;2023-04-16T09:47:21;20.40;99.90
16289;DHT22;26089;43.538;5.250;2023-04-16T09:49:48;20.30;99.90
16289;DHT22;26089;43.538;5.250;2023-04-16T09:52:16;19.80;99.90
16289;DHT22;26089;43.538;5.250;2023-04-16T09:54:48;19.80;99.90
16289;DHT22;26089;43.538;5.250;2023-04-16T09:57:19;20.20;99.90
16289;DHT22;26089;43.538;5.250;2023-04-16T09:59:47;20.40;99.90
16289;DHT22;26089;43.538;5.250;2023-04-16T10:02:14;20.20;99.90
16289;DHT22;26089;43.538;5.250;2023-04-16T10:04:46;20.40;99.90
16289;DHT22;26089;43.538;5.250;2023-04-16T10:07:13;20.20;99.90
16289;DHT22;26089;43.538;5.250;2023-04-16T10:09:41;20.60;99.90
16289;DHT22;26089;43.538;5.250;2023-04-16T10:12:08;20.90;99.90
16289;DHT22;26089;43.538;5.250;2023-04-16T10:14:36;21.30;99.90
16289;DHT22;26089;43.538;5.250;2023-04-16T10:17:04;21.30;99.90
16289;DHT22;26089;43.538;5.250;2023-04-16T10:19:32;21.40;99.90
16289;DHT22;26089;43.538;5.250;2023-04-16T10:21:59;20.70;99.90
16289;DHT22;26089;43.538;5.250;2023-04-16T10:24:27;20.80;99.90
16289;DHT22;26089;43.538;5.250;2023-04-16T10:26:55;21.20;99.90
16289;DHT22;26089;43.538;5.250;2023-04-16T10:29:22;21.00;99.90
16289;DHT22;26089;43.538;5.250;2023-04-16T10:31:52;20.70;99.90
16289;DHT22;26089;43.538;5.250;2023-04-16T10:34:20;20.90;99.90
16289;DHT22;26089;43.538;5.250;2023-04-16T10:36:48;21.70;99.90
16289;DHT22;26089;43.538;5.250;2023-04-16T10:39:17;21.90;99.90
16289;DHT22;26089;43.538;5.250;2023-04-16T10:41:45;22.40;99.90
16289;DHT22;26089;43.538;5.250;2023-04-16T10:44:12;21.80;99.90
16289;DHT22;26089;43.538;5.250;2023-04-16T10:46:40;21.10;99.90
16289;DHT22;26089;43.538;5.250;2023-04-16T10:49:15;21.30;99.90
16289;DHT22;26089;43.538;5.250;2023-04-16T10:51:52;21.80;99.90
16289;DHT22;26089;43.538;5.250;2023-04-16T10:54:23;21.70;99.90
16289;DHT22;26089;43.538;5.250;2023-04-16T10:56:51;21.50;99.90
16289;DHT22;26089;43.538;5.250;2023-04-16T10:59:20;21.30;99.90
16289;DHT22;26089;43.538;5.250;2023-04-16T11:01:49;21.90;99.90
16289;DHT22;26089;43.538;5.250;2023-04-16T11:04:28;22.30;99.90
16289;DHT22;26089;43.538;5.250;2023-04-16T11:07:03;22.60;99.90
16289;DHT22;26089;43.538;5.250;2023-04-16T11:09:53;23.10;99.90
16289;DHT22;26089;43.538;5.250;2023-04-16T11:12:22;22.30;99.90
16289;DHT22;26089;43.538;5.250;2023-04-16T11:14:52;22.70;99.90
16289;DHT22;26089;43.538;5.250;2023-04-16T11:17:20;22.70;99.90
16289;DHT22;26089;43.538;5.250;2023-04-16T11:19:49;22.30;99.90
16289;DHT22;26089;43.538;5.250;2023-04-16T11:22:16;22.30;99.90
16289;DHT22;26089;43.538;5.250;2023-04-16T11:24:44;22.80;99.90
16289;DHT22;26089;43.538;5.250;2023-04-16T11:27:12;23.20;99.90
16289;DHT22;26089;43.538;5.250;2023-04-16T11:29:40;23.60;99.90
16289;DHT22;26089;43.538;5.250;2023-04-16T11:32:07;22.70;99.90
16289;DHT22;26089;43.538;5.250;2023-04-16T11:34:41;23.10;99.90
16289;DHT22;26089;43.538;5.250;2023-04-16T11:37:10;23.10;99.90
16289;DHT22;26089;43.538;5.250;2023-04-16T11:39:50;23.70;99.90
16289;DHT22;26089;43.538;5.250;2023-04-16T11:42:21;23.30;99.90
16289;DHT22;26089;43.538;5.250;2023-04-16T11:44:52;22.90;99.90
16289;DHT22;26089;43.538;5.250;2023-04-16T11:47:20;23.00;99.90
16289;DHT22;26089;43.538;5.250;2023-04-16T11:49:47;22.70;99.90
16289;DHT22;26089;43.538;5.250;2023-04-16T11:52:25;22.80;99.90
16289;DHT22;26089;43.538;5.250;2023-04-16T11:54:53;23.60;99.90
16289;DHT22;26089;43.538;5.250;2023-04-16T11:57:24;22.40;99.90
16289;DHT22;26089;43.538;5.250;2023-04-16T11:59:51;22.50;99.90
16289;DHT22;26089;43.538;5.250;2023-04-16T12:02:34;22.60;99.90
16289;DHT22;26089;43.538;5.250;2023-04-16T12:05:02;23.20;99.90
16289;DHT22;26089;43.538;5.250;2023-04-16T12:07:30;23.00;99.90
16289;DHT22;26089;43.538;5.250;2023-04-16T12:10:05;22.90;99.90
16289;DHT22;26089;43.538;5.250;2023-04-16T12:12:33;23.10;99.90
16289;DHT22;26089;43.538;5.250;2023-04-16T12:15:00;22.90;99.90
16289;DHT22;26089;43.538;5.250;2023-04-16T12:17:31;23.30;99.90
16289;DHT22;26089;43.538;5.250;2023-04-16T12:19:59;23.50;99.90
16289;DHT22;26089;43.538;5.250;2023-04-16T12:22:27;23.40;99.60
16289;DHT22;26089;43.538;5.250;2023-04-16T12:24:58;23.10;99.80
16289;DHT22;26089;43.538;5.250;2023-04-16T12:27:25;23.10;99.90
16289;DHT22;26089;43.538;5.250;2023-04-16T12:30:03;22.90;99.90
16289;DHT22;26089;43.538;5.250;2023-04-16T12:32:31;23.10;99.60
16289;DHT22;26089;43.538;5.250;2023-04-16T12:34:58;23.00;99.40
16289;DHT22;26089;43.538;5.250;2023-04-16T12:37:25;22.60;99.50
16289;DHT22;26089;43.538;5.250;2023-04-16T12:39:52;23.30;99.40
16289;DHT22;26089;43.538;5.250;2023-04-16T12:42:21;23.80;98.70
16289;DHT22;26089;43.538;5.250;2023-04-16T12:44:48;23.70;98.50
16289;DHT22;26089;43.538;5.250;2023-04-16T12:47:15;23.60;98.80
16289;DHT22;26089;43.538;5.250;2023-04-16T12:49:42;23.80;98.70
16289;DHT22;26089;43.538;5.250;2023-04-16T12:52:10;23.20;98.20
16289;DHT22;26089;43.538;5.250;2023-04-16T12:54:37;23.20;98.80
16289;DHT22;26089;43.538;5.250;2023-04-16T12:57:04;23.40;98.10
16289;DHT22;26089;43.538;5.250;2023-04-16T12:59:32;23.50;98.10
16289;DHT22;26089;43.538;5.250;2023-04-16T13:02:00;23.10;98.30
16289;DHT22;26089;43.538;5.250;2023-04-16T13:04:27;23.10;98.10
16289;DHT22;26089;43.538;5.250;2023-04-16T13:06:54;22.70;98.00
16289;DHT22;26089;43.538;5.250;2023-04-16T13:09:21;22.70;98.60
16289;DHT22;26089;43.538;5.250;2023-04-16T13:11:49;23.20;98.10
16289;DHT22;26089;43.538;5.250;2023-04-16T13:14:16;22.80;97.50
16289;DHT22;26089;43.538;5.250;2023-04-16T13:16:44;22.70;97.70
16289;DHT22;26089;43.538;5.250;2023-04-16T13:19:11;22.90;97.60
16289;DHT22;26089;43.538;5.250;2023-04-16T13:21:38;22.30;97.80
16289;DHT22;26089;43.538;5.250;2023-04-16T13:24:06;22.30;97.90
16289;DHT22;26089;43.538;5.250;2023-04-16T13:26:32;22.70;97.30
16289;DHT22;26089;43.538;5.250;2023-04-16T13:29:00;23.20;96.70
16289;DHT22;26089;43.538;5.250;2023-04-16T13:31:27;22.60;96.80
16289;DHT22;26089;43.538;5.250;2023-04-16T13:33:55;22.10;97.00
16289;DHT22;26089;43.538;5.250;2023-04-16T13:36:22;22.20;97.40
16289;DHT22;26089;43.538;5.250;2023-04-16T13:38:49;22.50;97.80
16289;DHT22;26089;43.538;5.250;2023-04-16T13:41:16;22.70;96.90
16289;DHT22;26089;43.538;5.250;2023-04-16T13:43:43;22.90;96.90
16289;DHT22;26089;43.538;5.250;2023-04-16T13:46:11;22.10;97.40
16289;DHT22;26089;43.538;5.250;2023-04-16T13:48:38;22.10;97.60
16289;DHT22;26089;43.538;5.250;2023-04-16T13:51:06;21.50;98.30
16289;DHT22;26089;43.538;5.250;2023-04-16T13:53:33;21.60;98.60
16289;DHT22;26089;43.538;5.250;2023-04-16T13:56:00;21.60;98.60
16289;DHT22;26089;43.538;5.250;2023-04-16T13:58:28;21.80;98.70
16289;DHT22;26089;43.538;5.250;2023-04-16T14:00:55;22.00;99.00
16289;DHT22;26089;43.538;5.250;2023-04-16T14:03:24;22.20;99.00
16289;DHT22;26089;43.538;5.250;2023-04-16T14:05:51;22.00;99.30
16289;DHT22;26089;43.538;5.250;2023-04-16T14:08:20;21.40;99.70
16289;DHT22;26089;43.538;5.250;2023-04-16T14:10:47;21.50;99.90
16289;DHT22;26089;43.538;5.250;2023-04-16T14:13:14;21.70;99.90
16289;DHT22;26089;43.538;5.250;2023-04-16T14:15:41;21.60;99.90
16289;DHT22;26089;43.538;5.250;2023-04-16T14:18:08;21.40;99.90
16289;DHT22;26089;43.538;5.250;2023-04-16T14:20:35;21.20;99.90
16289;DHT22;26089;43.538;5.250;2023-04-16T14:23:04;21.30;99.90
16289;DHT22;26089;43.538;5.250;2023-04-16T14:25:33;21.80;99.90
16289;DHT22;26089;43.538;5.250;2023-04-16T14:28:00;21.60;99.90
16289;DHT22;26089;43.538;5.250;2023-04-16T14:30:27;21.60;99.90
16289;DHT22;26089;43.538;5.250;2023-04-16T14:32:54;21.80;99.90
16289;DHT22;26089;43.538;5.250;2023-04-16T14:35:22;21.90;99.90
16289;DHT22;26089;43.538;5.250;2023-04-16T14:37:49;22.00;99.90
16289;DHT22;26089;43.538;5.250;2023-04-16T14:40:16;22.10;99.90
16289;DHT22;26089;43.538;5.250;2023-04-16T14:42:44;21.70;99.90
16289;DHT22;26089;43.538;5.250;2023-04-16T14:45:11;21.60;99.90
16289;DHT22;26089;43.538;5.250;2023-04-16T14:47:38;21.30;99.90
16289;DHT22;26089;43.538;5.250;2023-04-16T14:50:11;21.00;99.90
16289;DHT22;26089;43.538;5.250;2023-04-16T14:52:38;21.30;99.90
16289;DHT22;26089;43.538;5.250;2023-04-16T14:55:05;21.50;99.90
16289;DHT22;26089;43.538;5.250;2023-04-16T14:57:33;21.50;99.90
16289;DHT22;26089;43.538;5.250;2023-04-16T15:00:02;20.80;99.90
16289;DHT22;26089;43.538;5.250;2023-04-16T15:02:33;20.70;99.90
16289;DHT22;26089;43.538;5.250;2023-04-16T15:05:00;20.80;99.90
16289;DHT22;26089;43.538;5.250;2023-04-16T15:07:27;20.30;99.90
16289;DHT22;26089;43.538;5.250;2023-04-16T15:09:54;20.30;99.90
16289;DHT22;26089;43.538;5.250;2023-04-16T15:12:21;19.90;99.90
16289;DHT22;26089;43.538;5.250;2023-04-16T15:14:48;20.30;99.90
16289;DHT22;26089;43.538;5.250;2023-04-16T15:17:17;20.10;99.90
16289;DHT22;26089;43.538;5.250;2023-04-16T15:19:44;20.10;99.90
16289;DHT22;26089;43.538;5.250;2023-04-16T15:22:12;20.10;99.90
16289;DHT22;26089;43.538;5.250;2023-04-16T15:24:39;19.90;99.90
16289;DHT22;26089;43.538;5.250;2023-04-16T15:27:06;19.80;99.90
16289;DHT22;26089;43.538;5.250;2023-04-16T15:29:33;19.70;99.90
16289;DHT22;26089;43.538;5.250;2023-04-16T15:32:00;19.80;99.90
16289;DHT22;26089;43.538;5.250;2023-04-16T15:34:29;19.60;99.90